createdAt,value
2023-04-05T00:00:20.473Z,102626.34
2023-04-05T00:02:53.100Z,102613.22
2023-04-05T00:05:29.623Z,102608.66
2023-04-05T00:08:03.098Z,102608.34
2023-04-05T00:10:34.572Z,102608.09
2023-04-05T00:13:04.379Z,102600.94
2023-04-05T00:15:34.424Z,102596.09
2023-04-05T00:18:06.940Z,102600.09
2023-04-05T00:20:37.598Z,102593.59
2023-04-05T00:23:09.734Z,102602.19
2023-04-05T00:25:39.602Z,102597.78
2023-04-05T00:28:09.584Z,102595.81
2023-04-05T00:30:39.493Z,102593.06
2023-04-05T00:33:12.178Z,102587.84
2023-04-05T00:35:42.026Z,102591.25
2023-04-05T00:38:11.852Z,102593.06
2023-04-05T00:40:41.860Z,102586.94
2023-04-05T00:43:14.162Z,102584.19
2023-04-05T00:45:45.257Z,102584.72
2023-04-05T00:48:17.890Z,102590.56
2023-04-05T00:50:49.354Z,102575.59
2023-04-05T00:53:19.654Z,102581.44
2023-04-05T00:55:50.978Z,102578.69
2023-04-05T00:58:22.463Z,102570.63
2023-04-05T01:01:02.379Z,102580.75
2023-04-05T01:03:37.328Z,102581.53
2023-04-05T01:06:22.340Z,102581.38
2023-04-05T01:09:08.696Z,102576.81
2023-04-05T01:11:42.270Z,102577.47
2023-04-05T01:14:12.130Z,102576.56
2023-04-05T01:16:41.950Z,102573.94
2023-04-05T01:19:14.595Z,102573.19
2023-04-05T01:22:14.354Z,102571.34
2023-04-05T01:25:03.150Z,102566.03
2023-04-05T01:27:49.753Z,102559.88
2023-04-05T01:30:31.372Z,102564.19
2023-04-05T01:33:11.568Z,102560.25
2023-04-05T01:35:47.717Z,102562.59
2023-04-05T01:38:25.470Z,102555.59
2023-04-05T01:40:56.397Z,102559.59
2023-04-05T01:43:26.308Z,102562.06
2023-04-05T01:45:58.768Z,102555.66
2023-04-05T01:48:30.129Z,102552.00
2023-04-05T01:51:00.053Z,102546.38
2023-04-05T01:53:31.274Z,102549.91
2023-04-05T01:56:04.175Z,102543.66
2023-04-05T01:58:34.070Z,102544.28
2023-04-05T02:01:06.674Z,102549.34
2023-04-05T02:03:36.643Z,102543.09
2023-04-05T02:06:07.908Z,102535.28
2023-04-05T02:08:37.789Z,102534.13
2023-04-05T02:11:07.717Z,102534.75
2023-04-05T02:13:37.701Z,102539.16
2023-04-05T02:16:10.145Z,102532.00
2023-04-05T02:18:40.490Z,102531.88
2023-04-05T02:21:17.474Z,102530.03
2023-04-05T02:23:47.323Z,102534.06
2023-04-05T02:26:17.211Z,102522.47
2023-04-05T02:28:47.421Z,102528.44
2023-04-05T02:31:21.444Z,102526.75
2023-04-05T02:33:51.375Z,102524.03
2023-04-05T02:36:24.932Z,102522.97
2023-04-05T02:38:57.595Z,102523.63
2023-04-05T02:41:27.598Z,102521.66
2023-04-05T02:43:57.442Z,102523.34
2023-04-05T02:46:29.890Z,102527.59
2023-04-05T02:49:00.034Z,102522.13
2023-04-05T02:51:29.851Z,102516.94
2023-04-05T02:53:59.695Z,102516.81
2023-04-05T02:56:29.524Z,102514.84
2023-04-05T02:58:59.610Z,102522.50
2023-04-05T03:01:33.128Z,102517.16
2023-04-05T03:04:03.909Z,102509.88
2023-04-05T03:06:34.223Z,102507.00
2023-04-05T03:09:04.913Z,102507.00
2023-04-05T03:11:34.776Z,102501.78
2023-04-05T03:14:04.613Z,102500.84
2023-04-05T03:16:40.199Z,102496.44
2023-04-05T03:19:10.257Z,102501.50
2023-04-05T03:21:41.329Z,102502.28
2023-04-05T03:24:11.619Z,102501.38
2023-04-05T03:26:42.326Z,102490.81
2023-04-05T03:29:12.232Z,102501.06
2023-04-05T03:31:44.762Z,102492.38
2023-04-05T03:34:14.752Z,102502.50
2023-04-05T03:36:48.420Z,102497.13
2023-04-05T03:39:18.254Z,102499.63
2023-04-05T03:41:48.101Z,102484.78
2023-04-05T03:44:17.949Z,102483.88
2023-04-05T03:46:53.566Z,102487.25
2023-04-05T03:49:23.410Z,102473.06
2023-04-05T03:51:53.300Z,102477.97
2023-04-05T03:54:23.113Z,102471.72
2023-04-05T03:56:53.020Z,102480.31
2023-04-05T03:59:25.858Z,102475.09
2023-04-05T04:01:58.410Z,102472.50
2023-04-05T04:04:28.475Z,102472.50
2023-04-05T04:06:59.230Z,102462.91
2023-04-05T04:09:30.826Z,102461.31
2023-04-05T04:12:01.263Z,102460.56
2023-04-05T04:14:31.263Z,102463.28
2023-04-05T04:17:03.886Z,102462.28
2023-04-05T04:19:33.914Z,102459.78
2023-04-05T04:22:04.647Z,102460.44
2023-04-05T04:24:34.565Z,102456.28
2023-04-05T04:27:07.083Z,102457.19
2023-04-05T04:29:46.828Z,102451.72
2023-04-05T04:32:22.807Z,102447.31
2023-04-05T04:34:56.114Z,102455.75
2023-04-05T04:37:30.589Z,102462.59
2023-04-05T04:40:06.724Z,102460.78
2023-04-05T04:42:39.396Z,102467.69
2023-04-05T04:45:13.302Z,102463.09
2023-04-05T04:47:46.221Z,102463.09
2023-04-05T04:50:17.254Z,102463.84
2023-04-05T04:52:47.183Z,102459.59
2023-04-05T04:55:17.158Z,102461.91
2023-04-05T04:57:47.208Z,102466.19
2023-04-05T05:00:18.451Z,102459.94
2023-04-05T05:02:51.471Z,102459.03
2023-04-05T05:05:22.924Z,102461.63
2023-04-05T05:07:55.333Z,102457.22
2023-04-05T05:10:25.136Z,102459.81
2023-04-05T05:12:55.026Z,102463.16
2023-04-05T05:15:24.941Z,102466.81
2023-04-05T05:17:59.432Z,102470.31
2023-04-05T05:20:30.377Z,102461.16
2023-04-05T05:23:02.654Z,102460.16
2023-04-05T05:25:32.619Z,102462.97
2023-04-05T05:28:02.531Z,102464.84
2023-04-05T05:30:33.734Z,102465.69
2023-04-05T05:33:06.280Z,102459.63
2023-04-05T05:35:38.264Z,102463.03
2023-04-05T05:38:10.221Z,102456.69
2023-04-05T05:40:43.512Z,102452.81
2023-04-05T05:43:13.589Z,102458.19
2023-04-05T05:45:43.420Z,102458.59
2023-04-05T05:48:16.346Z,102456.44
2023-04-05T05:50:49.049Z,102468.72
2023-04-05T05:53:19.117Z,102459.44
2023-04-05T05:55:49.001Z,102453.34
2023-04-05T05:58:18.950Z,102453.91
2023-04-05T06:00:50.722Z,102454.00
2023-04-05T06:03:26.604Z,102457.28
2023-04-05T06:05:57.279Z,102456.88
2023-04-05T06:08:27.937Z,102454.28
2023-04-05T06:10:58.684Z,102455.97
2023-04-05T06:13:28.497Z,102454.00
2023-04-05T06:15:58.333Z,102466.53
2023-04-05T06:18:30.807Z,102463.41
2023-04-05T06:21:00.665Z,102457.63
2023-04-05T06:23:30.593Z,102457.25
2023-04-05T06:26:00.570Z,102453.03
2023-04-05T06:28:31.843Z,102454.97
2023-04-05T06:31:04.498Z,102466.13
2023-04-05T06:33:37.032Z,102456.22
2023-04-05T06:36:07.340Z,102458.78
2023-04-05T06:38:37.219Z,102464.19
2023-04-05T06:41:07.457Z,102464.63
2023-04-05T06:43:37.393Z,102468.34
2023-04-05T06:46:09.059Z,102464.22
2023-04-05T06:48:42.492Z,102474.06
2023-04-05T06:51:12.617Z,102481.06
2023-04-05T06:53:42.489Z,102471.69
2023-04-05T06:56:12.648Z,102462.53
2023-04-05T06:58:42.640Z,102465.50
2023-04-05T07:01:12.612Z,102463.28
2023-04-05T07:03:47.403Z,102459.41
2023-04-05T07:06:17.390Z,102450.88
2023-04-05T07:08:47.243Z,102455.53
2023-04-05T07:11:17.114Z,102451.66
2023-04-05T07:13:46.923Z,102447.69
2023-04-05T07:16:18.432Z,102452.56
2023-04-05T07:18:52.187Z,102452.50
2023-04-05T07:21:22.008Z,102446.78
2023-04-05T07:23:53.879Z,102444.34
2023-04-05T07:26:23.703Z,102446.44
2023-04-05T07:28:57.488Z,102447.28
2023-04-05T07:31:27.686Z,102448.88
2023-04-05T07:34:00.480Z,102458.72
2023-04-05T07:36:31.005Z,102450.84
2023-04-05T07:39:01.499Z,102452.00
2023-04-05T07:41:35.651Z,102449.47
2023-04-05T07:44:05.575Z,102459.38
2023-04-05T07:46:36.226Z,102443.38
2023-04-05T07:49:08.781Z,102451.47
2023-04-05T07:51:38.704Z,102444.44
2023-04-05T07:54:08.834Z,102448.78
2023-04-05T07:56:40.273Z,102443.72
2023-04-05T07:59:10.460Z,102436.69
2023-04-05T08:01:40.995Z,102436.28
2023-04-05T08:04:18.388Z,102443.25
2023-04-05T08:06:48.728Z,102432.09
2023-04-05T08:09:18.589Z,102431.31
2023-04-05T08:11:49.001Z,102430.91
2023-04-05T08:14:22.023Z,102433.34
2023-04-05T08:16:52.225Z,102436.03
2023-04-05T08:19:24.753Z,102426.81
2023-04-05T08:21:56.388Z,102425.22
2023-04-05T08:24:26.452Z,102421.78
2023-04-05T08:26:56.563Z,102426.84
2023-04-05T08:29:26.593Z,102421.19
2023-04-05T08:31:59.123Z,102414.81
2023-04-05T08:34:34.701Z,102416.34
2023-04-05T08:37:04.620Z,102424.69
2023-04-05T08:39:34.500Z,102418.97
2023-04-05T08:42:12.288Z,102413.81
2023-04-05T08:44:48.070Z,102412.81
2023-04-05T08:47:22.093Z,102412.50
2023-04-05T08:49:54.608Z,102401.63
2023-04-05T08:52:24.579Z,102406.84
2023-04-05T08:54:57.254Z,102407.53
2023-04-05T08:57:29.959Z,102403.66
2023-04-05T09:00:02.262Z,102397.63
2023-04-05T09:02:33.018Z,102403.38
2023-04-05T09:05:06.975Z,102407.16
2023-04-05T09:07:38.406Z,102399.44
2023-04-05T09:10:10.268Z,102393.13
2023-04-05T09:12:40.553Z,102400.19
2023-04-05T09:15:11.404Z,102390.69
2023-04-05T09:17:42.512Z,102394.59
2023-04-05T09:20:14.997Z,102394.59
2023-04-05T09:22:48.055Z,102405.41
2023-04-05T09:25:38.516Z,102399.72
2023-04-05T09:28:09.117Z,102403.03
2023-04-05T09:30:43.098Z,102396.59
2023-04-05T09:33:13.296Z,102403.44
2023-04-05T09:35:45.906Z,102400.59
2023-04-05T09:38:15.819Z,102400.28
2023-04-05T09:40:47.381Z,102387.44
2023-04-05T09:43:37.768Z,102391.06
2023-04-05T09:46:07.799Z,102380.69
2023-04-05T09:48:49.574Z,102381.03
2023-04-05T09:51:22.292Z,102374.59
2023-04-05T09:54:02.620Z,102384.38
2023-04-05T09:56:34.468Z,102382.22
2023-04-05T09:59:05.141Z,102383.63
2023-04-05T10:01:39.922Z,102381.00
2023-04-05T10:04:11.385Z,102377.81
2023-04-05T10:06:44.951Z,102374.78
2023-04-05T10:09:17.689Z,102378.66
2023-04-05T10:11:51.747Z,102367.91
2023-04-05T10:14:22.679Z,102368.00
2023-04-05T10:17:02.369Z,102367.19
2023-04-05T10:19:40.006Z,102368.72
2023-04-05T10:22:20.965Z,102363.97
2023-04-05T10:24:57.695Z,102356.81
2023-04-05T10:27:33.738Z,102366.69
2023-04-05T10:30:09.445Z,102359.94
2023-04-05T10:32:52.218Z,102357.47
2023-04-05T10:35:27.455Z,102355.56
2023-04-05T10:38:15.000Z,102351.25
2023-04-05T10:40:49.487Z,102359.44
2023-04-05T10:43:24.718Z,102351.97
2023-04-05T10:45:58.307Z,102349.88
2023-04-05T10:48:41.107Z,102355.72
2023-04-05T10:51:11.098Z,102349.56
2023-04-05T10:53:44.465Z,102349.56
2023-04-05T10:56:18.323Z,102342.13
2023-04-05T10:58:49.679Z,102347.50
2023-04-05T11:01:21.852Z,102342.50
2023-04-05T11:03:53.999Z,102334.06
2023-04-05T11:06:32.446Z,102331.84
2023-04-05T11:09:15.608Z,102324.22
2023-04-05T11:11:47.060Z,102323.78
2023-04-05T11:14:26.001Z,102324.69
2023-04-05T11:17:02.124Z,102327.41
2023-04-05T11:19:53.274Z,102324.28
2023-04-05T11:22:30.402Z,102316.97
2023-04-05T11:25:04.795Z,102312.13
2023-04-05T11:27:37.805Z,102308.41
2023-04-05T11:30:09.483Z,102317.03
2023-04-05T11:32:43.590Z,102306.91
2023-04-05T11:35:18.020Z,102307.41
2023-04-05T11:38:11.067Z,102300.91
2023-04-05T11:40:44.201Z,102299.75
2023-04-05T11:43:15.230Z,102294.53
2023-04-05T11:45:47.250Z,102298.41
2023-04-05T11:48:17.286Z,102297.06
2023-04-05T11:50:49.644Z,102280.88
2023-04-05T11:53:21.504Z,102278.47
2023-04-05T11:55:55.651Z,102285.84
2023-04-05T11:58:28.736Z,102281.66
2023-04-05T12:01:03.101Z,102279.25
2023-04-05T12:03:34.358Z,102283.03
2023-04-05T12:06:05.610Z,102271.09
2023-04-05T12:08:43.624Z,102263.00
2023-04-05T12:11:16.038Z,102261.28
2023-04-05T12:13:48.404Z,102260.06
2023-04-05T12:16:19.127Z,102254.84
2023-04-05T12:18:56.275Z,102257.75
2023-04-05T12:21:27.664Z,102251.81
2023-04-05T12:23:57.629Z,102251.81
2023-04-05T12:26:34.434Z,102253.69
2023-04-05T12:29:07.449Z,102260.34
2023-04-05T12:31:43.569Z,102259.09
2023-04-05T12:34:14.431Z,102254.97
2023-04-05T12:36:48.861Z,102255.97
2023-04-05T12:39:20.134Z,102257.75
2023-04-05T12:41:59.917Z,102251.97
2023-04-05T12:44:35.470Z,102251.09
2023-04-05T12:47:09.448Z,102246.31
2023-04-05T12:49:41.133Z,102245.00
2023-04-05T12:52:11.837Z,102236.47
2023-04-05T12:54:42.036Z,102235.16
2023-04-05T12:57:16.872Z,102235.00
2023-04-05T12:59:46.709Z,102229.72
2023-04-05T13:02:18.180Z,102224.13
2023-04-05T13:04:48.071Z,102222.47
2023-04-05T13:07:18.635Z,102219.69
2023-04-05T13:09:48.490Z,102223.97
2023-04-05T13:12:21.027Z,102214.91
2023-04-05T13:14:50.826Z,102216.53
2023-04-05T13:17:20.640Z,102214.41
2023-04-05T13:19:50.472Z,102204.56
2023-04-05T13:22:20.333Z,102202.22
2023-04-05T13:24:50.161Z,102207.25
2023-04-05T13:27:22.921Z,102196.50
2023-04-05T13:29:52.839Z,102197.63
2023-04-05T13:32:22.741Z,102196.94
2023-04-05T13:34:52.571Z,102192.91
2023-04-05T13:37:22.614Z,102185.41
2023-04-05T13:39:53.179Z,102182.28
2023-04-05T13:42:26.187Z,102187.19
2023-04-05T13:44:55.988Z,102181.41
2023-04-05T13:47:25.915Z,102174.91
2023-04-05T13:49:55.795Z,102172.66
2023-04-05T13:52:26.144Z,102172.78
2023-04-05T13:55:02.169Z,102155.38
2023-04-05T13:57:35.994Z,102158.00
2023-04-05T14:00:06.626Z,102159.66
2023-04-05T14:02:36.938Z,102154.63
2023-04-05T14:05:07.959Z,102153.25
2023-04-05T14:07:38.640Z,102151.75
2023-04-05T14:10:09.258Z,102151.47
2023-04-05T14:12:41.787Z,102148.38
2023-04-05T14:15:12.203Z,102143.78
2023-04-05T14:17:42.113Z,102139.91
2023-04-05T14:20:12.794Z,102132.50
2023-04-05T14:22:42.644Z,102129.88
2023-04-05T14:25:13.014Z,102134.56
2023-04-05T14:27:45.646Z,102127.97
2023-04-05T14:30:16.732Z,102128.25
2023-04-05T14:32:47.262Z,102135.50
2023-04-05T14:35:17.106Z,102124.94
2023-04-05T14:37:46.975Z,102123.69
2023-04-05T14:40:17.141Z,102125.59
2023-04-05T14:42:50.397Z,102117.97
2023-04-05T14:45:21.064Z,102117.53
2023-04-05T14:47:51.052Z,102115.50
2023-04-05T14:50:21.052Z,102113.63
2023-04-05T14:52:51.177Z,102109.25
2023-04-05T14:55:21.318Z,102102.38
2023-04-05T14:57:53.998Z,102098.19
2023-04-05T15:00:24.261Z,102105.16
2023-04-05T15:02:59.261Z,102103.38
2023-04-05T15:05:29.387Z,102098.63
2023-04-05T15:07:59.221Z,102101.09
2023-04-05T15:10:29.879Z,102087.59
2023-04-05T15:13:02.452Z,102090.69
2023-04-05T15:15:32.965Z,102089.47
2023-04-05T15:18:02.805Z,102087.69
2023-04-05T15:20:33.563Z,102087.44
2023-04-05T15:23:03.721Z,102088.44
2023-04-05T15:25:33.578Z,102082.56
2023-04-05T15:28:07.027Z,102082.13
2023-04-05T15:30:37.830Z,102086.06
2023-04-05T15:33:07.797Z,102075.06
2023-04-05T15:35:38.950Z,102078.91
2023-04-05T15:38:08.794Z,102077.50
2023-04-05T15:40:39.969Z,102066.38
2023-04-05T15:43:12.805Z,102064.06
2023-04-05T15:45:43.124Z,102069.63
2023-04-05T15:48:14.030Z,102070.56
2023-04-05T15:50:44.513Z,102065.06
2023-04-05T15:53:15.906Z,102061.28
2023-04-05T15:55:45.887Z,102055.94
2023-04-05T15:58:18.252Z,102055.94
2023-04-05T16:00:48.121Z,102057.44
2023-04-05T16:03:18.236Z,102058.97
2023-04-05T16:05:51.117Z,102055.28
2023-04-05T16:08:20.973Z,102060.38
2023-04-05T16:10:50.964Z,102056.63
2023-04-05T16:13:23.449Z,102054.06
2023-04-05T16:15:55.002Z,102045.25
2023-04-05T16:18:26.212Z,102048.50
2023-04-05T16:20:56.091Z,102045.31
2023-04-05T16:23:25.943Z,102041.41
2023-04-05T16:25:55.971Z,102043.81
2023-04-05T16:28:28.404Z,102035.38
2023-04-05T16:31:00.231Z,102035.78
2023-04-05T16:33:30.138Z,102033.69
2023-04-05T16:36:00.100Z,102042.41
2023-04-05T16:38:30.017Z,102040.59
2023-04-05T16:41:02.477Z,102037.81
2023-04-05T16:43:35.259Z,102033.31
2023-04-05T16:46:05.192Z,102041.84
2023-04-05T16:48:35.141Z,102031.00
2023-04-05T16:51:06.960Z,102032.50
2023-04-05T16:53:37.166Z,102027.81
2023-04-05T16:56:07.260Z,102031.19
2023-04-05T16:58:39.653Z,102027.41
2023-04-05T17:01:09.687Z,102019.28
2023-04-05T17:03:47.266Z,102023.63
2023-04-05T17:06:17.531Z,102025.28
2023-04-05T17:08:47.368Z,102023.34
2023-04-05T17:11:20.135Z,102025.78
2023-04-05T17:13:52.629Z,102017.81
2023-04-05T17:16:22.703Z,102024.56
2023-04-05T17:18:52.675Z,102024.22
2023-04-05T17:21:23.152Z,102025.78
2023-04-05T17:23:53.070Z,102015.81
2023-04-05T17:26:23.439Z,102022.56
2023-04-05T17:28:55.934Z,102024.03
2023-04-05T17:31:25.854Z,102021.06
2023-04-05T17:33:55.709Z,102014.59
2023-04-05T17:36:26.332Z,102016.84
2023-04-05T17:38:56.163Z,102014.69
2023-04-05T17:41:27.643Z,102018.78
2023-04-05T17:44:00.185Z,102011.50
2023-04-05T17:46:40.196Z,102011.06
2023-04-05T17:49:14.407Z,102016.94
2023-04-05T17:51:44.268Z,102012.19
2023-04-05T17:54:17.278Z,102014.91
2023-04-05T17:56:47.278Z,102007.00
2023-04-05T17:59:19.850Z,102017.56
2023-04-05T18:01:54.008Z,102021.13
2023-04-05T18:04:24.902Z,102017.06
2023-04-05T18:06:54.842Z,102016.44
2023-04-05T18:09:24.648Z,102013.13
2023-04-05T18:11:54.451Z,102019.56
2023-04-05T18:14:27.046Z,102022.53
2023-04-05T18:16:56.916Z,102014.91
2023-04-05T18:19:26.896Z,102018.81
2023-04-05T18:21:56.690Z,102024.72
2023-04-05T18:24:26.666Z,102022.63
2023-04-05T18:26:56.629Z,102018.81
2023-04-05T18:29:30.941Z,102025.56
2023-04-05T18:32:00.908Z,102027.00
2023-04-05T18:34:30.989Z,102028.59
2023-04-05T18:37:00.904Z,102022.34
2023-04-05T18:39:31.144Z,102023.91
2023-04-05T18:42:01.184Z,102024.31
2023-04-05T18:44:33.928Z,102023.22
2023-04-05T18:47:05.066Z,102028.28
2023-04-05T18:49:34.951Z,102033.50
2023-04-05T18:52:04.813Z,102028.06
2023-04-05T18:54:38.538Z,102030.50
2023-04-05T18:57:10.116Z,102032.03
2023-04-05T18:59:42.586Z,102029.47
2023-04-05T19:02:15.207Z,102032.03
2023-04-05T19:04:45.079Z,102036.13
2023-04-05T19:07:14.907Z,102035.84
2023-04-05T19:09:45.129Z,102037.38
2023-04-05T19:12:14.936Z,102042.41
2023-04-05T19:14:49.907Z,102034.44
2023-04-05T19:17:19.741Z,102046.63
2023-04-05T19:19:49.569Z,102041.22
2023-04-05T19:22:19.370Z,102048.88
2023-04-05T19:24:49.171Z,102042.50
2023-04-05T19:27:20.530Z,102037.06
2023-04-05T19:29:52.998Z,102043.81
2023-04-05T19:32:23.778Z,102040.09
2023-04-05T19:34:53.679Z,102046.75
2023-04-05T19:37:23.538Z,102040.19
2023-04-05T19:39:57.570Z,102047.63
2023-04-05T19:42:27.372Z,102050.75
2023-04-05T19:45:01.251Z,102047.84
2023-04-05T19:47:31.662Z,102050.13
2023-04-05T19:50:12.758Z,102045.41
2023-04-05T19:52:45.621Z,102039.84
2023-04-05T19:55:31.386Z,102039.47
2023-04-05T19:58:01.860Z,102032.00
2023-04-05T20:00:40.578Z,102032.59
2023-04-05T20:03:30.531Z,102028.63
2023-04-05T20:06:11.868Z,102036.97
2023-04-05T20:08:43.459Z,102032.34
2023-04-05T20:11:15.685Z,102035.66
2023-04-05T20:13:49.625Z,102030.19
2023-04-05T20:16:28.518Z,102023.88
2023-04-05T20:19:00.836Z,102021.94
2023-04-05T20:21:31.172Z,102019.00
2023-04-05T20:24:02.183Z,102025.06
2023-04-05T20:26:33.085Z,102017.91
2023-04-05T20:29:04.294Z,102017.59
2023-04-05T20:31:39.219Z,102016.69
2023-04-05T20:34:13.500Z,102013.84
2023-04-05T20:36:50.996Z,102011.84
2023-04-05T20:39:23.777Z,102006.47
2023-04-05T20:41:53.651Z,102011.50
2023-04-05T20:44:23.480Z,102009.47
2023-04-05T20:46:58.374Z,102015.28
2023-04-05T20:49:28.382Z,102007.34
2023-04-05T20:51:58.234Z,101998.47
2023-04-05T20:54:29.752Z,102002.00
2023-04-05T20:56:59.588Z,101994.84
2023-04-05T20:59:29.447Z,102000.69
2023-04-05T21:02:01.964Z,102003.84
2023-04-05T21:04:31.873Z,101995.69
2023-04-05T21:07:01.943Z,101995.50
2023-04-05T21:09:31.821Z,101998.78
2023-04-05T21:12:01.664Z,101992.31
2023-04-05T21:14:31.507Z,101997.31
2023-04-05T21:17:04.415Z,101987.44
2023-04-05T21:19:34.297Z,101987.22
2023-04-05T21:22:04.165Z,101987.22
2023-04-05T21:24:33.982Z,101982.91
2023-04-05T21:27:03.772Z,101978.38
2023-04-05T21:29:33.592Z,101978.16
2023-04-05T21:32:06.093Z,101976.44
2023-04-05T21:34:35.918Z,101970.13
2023-04-05T21:37:05.760Z,101971.72
2023-04-05T21:39:35.713Z,101974.31
2023-04-05T21:42:05.638Z,101978.72
2023-04-05T21:44:35.489Z,101977.94
2023-04-05T21:47:08.068Z,101983.16
2023-04-05T21:49:37.980Z,101980.56
2023-04-05T21:52:08.055Z,101984.19
2023-04-05T21:54:37.863Z,101982.56
2023-04-05T21:57:07.661Z,101981.88
2023-04-05T21:59:37.601Z,101983.59
2023-04-05T22:02:12.348Z,101980.19
2023-04-05T22:04:42.504Z,101980.28
2023-04-05T22:07:12.468Z,101975.06
2023-04-05T22:09:45.369Z,101975.97
2023-04-05T22:12:15.564Z,101979.59
2023-04-05T22:14:45.410Z,101977.00
2023-04-05T22:17:18.681Z,101975.97
2023-04-05T22:19:51.112Z,101966.13
2023-04-05T22:22:22.738Z,101970.00
2023-04-05T22:24:52.551Z,101964.44
2023-04-05T22:27:22.402Z,101968.56
2023-04-05T22:29:54.548Z,101953.59
2023-04-05T22:32:28.596Z,101954.47
2023-04-05T22:34:58.684Z,101957.00
2023-04-05T22:37:35.763Z,101956.88
2023-04-05T22:40:06.530Z,101959.50
2023-04-05T22:42:37.142Z,101952.47
2023-04-05T22:45:07.656Z,101956.88
2023-04-05T22:47:40.114Z,101951.53
2023-04-05T22:50:11.270Z,101951.31
2023-04-05T22:52:41.434Z,101943.28
2023-04-05T22:55:12.297Z,101948.16
2023-04-05T22:57:42.261Z,101945.34
2023-04-05T23:00:13.256Z,101941.59
2023-04-05T23:02:46.646Z,101931.75
2023-04-05T23:05:16.590Z,101936.75
2023-04-05T23:07:46.393Z,101931.28
2023-04-05T23:10:16.492Z,101926.66
2023-04-05T23:12:47.386Z,101927.22
2023-04-05T23:15:17.629Z,101923.38
2023-04-05T23:17:50.599Z,101923.16
2023-04-05T23:20:20.575Z,101929.16
2023-04-05T23:22:50.462Z,101923.72
2023-04-05T23:25:20.273Z,101928.94
2023-04-05T23:27:50.102Z,101912.25
2023-04-05T23:30:20.018Z,101920.88
2023-04-05T23:32:52.744Z,101917.94
2023-04-05T23:35:22.582Z,101915.81
2023-04-05T23:37:52.403Z,101911.94
2023-04-05T23:40:22.451Z,101916.69
2023-04-05T23:42:53.535Z,101921.69
2023-04-05T23:45:23.392Z,101911.16
2023-04-05T23:47:55.881Z,101905.16
2023-04-05T23:50:26.514Z,101902.53
2023-04-05T23:52:56.720Z,101899.03
2023-04-05T23:55:26.695Z,101895.41
2023-04-05T23:57:58.030Z,101899.03
